sensor_id;sensor_type;location;lat;lon;timestamp;P1;durP1;ratioP1;P2;durP2;ratioP2
1062;SDS011;520;50.932;6.962;2023-05-10T00:01:13;3.77;;;3.40;;
1062;SDS011;520;50.932;6.962;2023-05-10T00:03:59;4.70;;;3.37;;
1062;SDS011;520;50.932;6.962;2023-05-10T00:06:26;4.17;;;3.57;;
1062;SDS011;520;50.932;6.962;2023-05-10T00:08:54;4.67;;;3.40;;
1062;SDS011;520;50.932;6.962;2023-05-10T00:11:25;4.23;;;3.70;;
1062;SDS011;520;50.932;6.962;2023-05-10T00:13:59;4.53;;;3.73;;
1062;SDS011;520;50.932;6.962;2023-05-10T00:16:26;4.07;;;3.67;;
1062;SDS011;520;50.932;6.962;2023-05-10T00:18:57;5.00;;;4.37;;
1062;SDS011;520;50.932;6.962;2023-05-10T00:21:27;5.13;;;4.13;;
1062;SDS011;520;50.932;6.962;2023-05-10T00:23:57;4.40;;;3.90;;
1062;SDS011;520;50.932;6.962;2023-05-10T00:26:26;4.10;;;3.70;;
1062;SDS011;520;50.932;6.962;2023-05-10T00:29:02;5.73;;;4.30;;
1062;SDS011;520;50.932;6.962;2023-05-10T00:31:30;5.13;;;4.50;;
1062;SDS011;520;50.932;6.962;2023-05-10T00:33:59;4.63;;;3.43;;
1062;SDS011;520;50.932;6.962;2023-05-10T00:36:31;5.13;;;4.63;;
1062;SDS011;520;50.932;6.962;2023-05-10T00:39:04;4.80;;;3.73;;
1062;SDS011;520;50.932;6.962;2023-05-10T00:41:42;5.70;;;4.80;;
1062;SDS011;520;50.932;6.962;2023-05-10T00:44:16;5.30;;;4.60;;
1062;SDS011;520;50.932;6.962;2023-05-10T00:46:50;5.90;;;4.10;;
1062;SDS011;520;50.932;6.962;2023-05-10T00:49:20;5.00;;;4.03;;
1062;SDS011;520;50.932;6.962;2023-05-10T00:51:54;5.23;;;4.43;;
1062;SDS011;520;50.932;6.962;2023-05-10T00:54:32;5.77;;;4.10;;
1062;SDS011;520;50.932;6.962;2023-05-10T00:57:09;6.53;;;4.83;;
1062;SDS011;520;50.932;6.962;2023-05-10T00:59:41;7.77;;;5.20;;
1062;SDS011;520;50.932;6.962;2023-05-10T01:02:10;8.20;;;5.27;;
1062;SDS011;520;50.932;6.962;2023-05-10T01:04:47;6.03;;;4.30;;
1062;SDS011;520;50.932;6.962;2023-05-10T01:07:20;6.53;;;4.90;;
1062;SDS011;520;50.932;6.962;2023-05-10T01:09:55;5.63;;;4.70;;
1062;SDS011;520;50.932;6.962;2023-05-10T01:12:25;5.23;;;4.20;;
1062;SDS011;520;50.932;6.962;2023-05-10T01:14:58;6.40;;;4.90;;
1062;SDS011;520;50.932;6.962;2023-05-10T01:17:32;6.73;;;5.60;;
1062;SDS011;520;50.932;6.962;2023-05-10T01:20:01;6.13;;;4.93;;
1062;SDS011;520;50.932;6.962;2023-05-10T01:33:17;5.30;;;4.80;;
1062;SDS011;520;50.932;6.962;2023-05-10T01:36:05;6.20;;;4.83;;
1062;SDS011;520;50.932;6.962;2023-05-10T01:41:49;5.30;;;4.00;;
1062;SDS011;520;50.932;6.962;2023-05-10T01:44:29;5.70;;;4.70;;
1062;SDS011;520;50.932;6.962;2023-05-10T01:47:04;6.10;;;4.93;;
1062;SDS011;520;50.932;6.962;2023-05-10T01:49:54;5.20;;;4.10;;
1062;SDS011;520;50.932;6.962;2023-05-10T01:52:25;5.87;;;4.70;;
1062;SDS011;520;50.932;6.962;2023-05-10T01:55:05;6.20;;;4.20;;
1062;SDS011;520;50.932;6.962;2023-05-10T01:57:35;4.57;;;4.00;;
1062;SDS011;520;50.932;6.962;2023-05-10T02:00:04;4.10;;;3.60;;
1062;SDS011;520;50.932;6.962;2023-05-10T02:02:33;5.47;;;4.30;;
1062;SDS011;520;50.932;6.962;2023-05-10T02:05:03;5.00;;;4.30;;
1062;SDS011;520;50.932;6.962;2023-05-10T02:07:34;5.53;;;4.60;;
1062;SDS011;520;50.932;6.962;2023-05-10T02:10:03;6.93;;;4.47;;
1062;SDS011;520;50.932;6.962;2023-05-10T02:12:32;6.27;;;5.17;;
1062;SDS011;520;50.932;6.962;2023-05-10T02:15:02;4.40;;;3.33;;
1062;SDS011;520;50.932;6.962;2023-05-10T02:17:32;5.57;;;4.20;;
1062;SDS011;520;50.932;6.962;2023-05-10T02:20:01;5.37;;;4.53;;
1062;SDS011;520;50.932;6.962;2023-05-10T02:22:30;4.33;;;3.93;;
1062;SDS011;520;50.932;6.962;2023-05-10T02:25:00;6.07;;;3.33;;
1062;SDS011;520;50.932;6.962;2023-05-10T02:27:31;5.13;;;4.40;;
1062;SDS011;520;50.932;6.962;2023-05-10T02:30:03;5.10;;;3.57;;
1062;SDS011;520;50.932;6.962;2023-05-10T02:32:40;5.00;;;3.97;;
1062;SDS011;520;50.932;6.962;2023-05-10T02:35:14;5.20;;;3.80;;
1062;SDS011;520;50.932;6.962;2023-05-10T02:37:50;4.20;;;3.10;;
1062;SDS011;520;50.932;6.962;2023-05-10T02:40:33;3.17;;;2.87;;
1062;SDS011;520;50.932;6.962;2023-05-10T02:43:17;3.67;;;2.70;;
1062;SDS011;520;50.932;6.962;2023-05-10T02:45:51;3.60;;;2.70;;
1062;SDS011;520;50.932;6.962;2023-05-10T02:48:18;3.40;;;3.10;;
1062;SDS011;520;50.932;6.962;2023-05-10T02:50:53;3.63;;;3.30;;
1062;SDS011;520;50.932;6.962;2023-05-10T02:53:34;3.30;;;2.63;;
1062;SDS011;520;50.932;6.962;2023-05-10T02:56:05;5.40;;;2.50;;
1062;SDS011;520;50.932;6.962;2023-05-10T02:58:46;3.07;;;2.73;;
1062;SDS011;520;50.932;6.962;2023-05-10T03:01:33;3.77;;;3.07;;
1062;SDS011;520;50.932;6.962;2023-05-10T03:04:00;2.90;;;2.60;;
1062;SDS011;520;50.932;6.962;2023-05-10T03:06:27;3.43;;;2.40;;
1062;SDS011;520;50.932;6.962;2023-05-10T03:08:57;3.03;;;2.73;;
1062;SDS011;520;50.932;6.962;2023-05-10T03:17:29;3.40;;;2.30;;
1062;SDS011;520;50.932;6.962;2023-05-10T03:20:11;3.10;;;2.80;;
1062;SDS011;520;50.932;6.962;2023-05-10T03:23:02;2.70;;;2.23;;
1062;SDS011;520;50.932;6.962;2023-05-10T03:25:45;2.77;;;2.47;;
1062;SDS011;520;50.932;6.962;2023-05-10T03:28:24;2.67;;;2.10;;
1062;SDS011;520;50.932;6.962;2023-05-10T03:30:59;3.40;;;2.53;;
1062;SDS011;520;50.932;6.962;2023-05-10T03:33:30;2.80;;;2.23;;
1062;SDS011;520;50.932;6.962;2023-05-10T03:36:14;3.53;;;2.87;;
1062;SDS011;520;50.932;6.962;2023-05-10T03:38:43;3.60;;;2.80;;
1062;SDS011;520;50.932;6.962;2023-05-10T03:41:15;3.40;;;3.03;;
1062;SDS011;520;50.932;6.962;2023-05-10T03:43:53;3.30;;;3.00;;
1062;SDS011;520;50.932;6.962;2023-05-10T03:46:23;4.93;;;3.80;;
1062;SDS011;520;50.932;6.962;2023-05-10T03:48:50;5.10;;;3.63;;
1062;SDS011;520;50.932;6.962;2023-05-10T03:51:16;4.10;;;3.50;;
1062;SDS011;520;50.932;6.962;2023-05-10T03:53:49;3.87;;;3.47;;
1062;SDS011;520;50.932;6.962;2023-05-10T03:56:16;5.60;;;4.63;;
1062;SDS011;520;50.932;6.962;2023-05-10T03:58:42;7.73;;;4.70;;
1062;SDS011;520;50.932;6.962;2023-05-10T04:01:09;5.53;;;3.60;;
1062;SDS011;520;50.932;6.962;2023-05-10T04:03:35;6.10;;;5.00;;
1062;SDS011;520;50.932;6.962;2023-05-10T04:06:03;7.00;;;4.80;;
1062;SDS011;520;50.932;6.962;2023-05-10T04:08:30;4.97;;;4.30;;
1062;SDS011;520;50.932;6.962;2023-05-10T04:11:04;6.80;;;4.90;;
1062;SDS011;520;50.932;6.962;2023-05-10T04:13:35;5.80;;;4.27;;
1062;SDS011;520;50.932;6.962;2023-05-10T04:16:03;6.40;;;4.63;;
1062;SDS011;520;50.932;6.962;2023-05-10T04:18:30;6.30;;;4.97;;
1062;SDS011;520;50.932;6.962;2023-05-10T04:20:57;7.50;;;5.17;;
1062;SDS011;520;50.932;6.962;2023-05-10T04:23:24;6.80;;;5.43;;
1062;SDS011;520;50.932;6.962;2023-05-10T04:25:50;7.40;;;5.40;;
1062;SDS011;520;50.932;6.962;2023-05-10T04:28:17;7.40;;;4.87;;
1062;SDS011;520;50.932;6.962;2023-05-10T04:30:44;7.20;;;5.27;;
1062;SDS011;520;50.932;6.962;2023-05-10T04:33:10;10.37;;;6.97;;
1062;SDS011;520;50.932;6.962;2023-05-10T04:35:37;8.20;;;6.17;;
1062;SDS011;520;50.932;6.962;2023-05-10T04:38:04;6.07;;;5.03;;
1062;SDS011;520;50.932;6.962;2023-05-10T04:40:31;8.40;;;6.03;;
1062;SDS011;520;50.932;6.962;2023-05-10T04:42:58;9.03;;;6.63;;
1062;SDS011;520;50.932;6.962;2023-05-10T04:45:24;7.10;;;5.03;;
1062;SDS011;520;50.932;6.962;2023-05-10T04:47:51;7.07;;;4.97;;
1062;SDS011;520;50.932;6.962;2023-05-10T04:50:18;7.00;;;6.07;;
1062;SDS011;520;50.932;6.962;2023-05-10T04:52:45;6.33;;;4.50;;
1062;SDS011;520;50.932;6.962;2023-05-10T04:55:12;7.20;;;5.00;;
1062;SDS011;520;50.932;6.962;2023-05-10T04:57:39;6.57;;;5.30;;
1062;SDS011;520;50.932;6.962;2023-05-10T05:00:06;10.10;;;5.80;;
1062;SDS011;520;50.932;6.962;2023-05-10T05:02:33;7.03;;;5.83;;
1062;SDS011;520;50.932;6.962;2023-05-10T05:05:00;7.90;;;5.90;;
1062;SDS011;520;50.932;6.962;2023-05-10T05:07:27;7.80;;;5.30;;
1062;SDS011;520;50.932;6.962;2023-05-10T05:09:54;6.43;;;5.30;;
1062;SDS011;520;50.932;6.962;2023-05-10T05:12:21;6.30;;;5.43;;
1062;SDS011;520;50.932;6.962;2023-05-10T05:14:48;8.60;;;4.70;;
1062;SDS011;520;50.932;6.962;2023-05-10T05:17:15;10.30;;;5.37;;
1062;SDS011;520;50.932;6.962;2023-05-10T05:19:42;6.73;;;5.20;;
1062;SDS011;520;50.932;6.962;2023-05-10T05:22:09;10.30;;;6.40;;
1062;SDS011;520;50.932;6.962;2023-05-10T05:24:36;10.00;;;5.80;;
1062;SDS011;520;50.932;6.962;2023-05-10T05:27:06;7.00;;;5.23;;
1062;SDS011;520;50.932;6.962;2023-05-10T05:29:33;7.90;;;5.63;;
1062;SDS011;520;50.932;6.962;2023-05-10T05:32:01;7.37;;;4.87;;
1062;SDS011;520;50.932;6.962;2023-05-10T05:34:28;8.20;;;5.47;;
1062;SDS011;520;50.932;6.962;2023-05-10T05:36:55;7.23;;;5.20;;
1062;SDS011;520;50.932;6.962;2023-05-10T05:39:22;9.10;;;5.40;;
1062;SDS011;520;50.932;6.962;2023-05-10T05:41:52;7.67;;;4.97;;
1062;SDS011;520;50.932;6.962;2023-05-10T05:44:19;10.03;;;6.00;;
1062;SDS011;520;50.932;6.962;2023-05-10T05:46:46;8.53;;;5.00;;
1062;SDS011;520;50.932;6.962;2023-05-10T05:49:13;8.70;;;5.57;;
1062;SDS011;520;50.932;6.962;2023-05-10T05:51:40;7.17;;;4.70;;
1062;SDS011;520;50.932;6.962;2023-05-10T05:54:08;6.03;;;4.93;;
1062;SDS011;520;50.932;6.962;2023-05-10T05:56:34;9.47;;;5.77;;
1062;SDS011;520;50.932;6.962;2023-05-10T05:59:02;6.80;;;5.90;;
1062;SDS011;520;50.932;6.962;2023-05-10T06:01:30;8.70;;;5.10;;
1062;SDS011;520;50.932;6.962;2023-05-10T06:03:56;7.30;;;4.60;;
1062;SDS011;520;50.932;6.962;2023-05-10T06:06:26;9.50;;;5.40;;
1062;SDS011;520;50.932;6.962;2023-05-10T06:08:54;7.70;;;4.73;;
1062;SDS011;520;50.932;6.962;2023-05-10T06:11:21;10.07;;;5.40;;
1062;SDS011;520;50.932;6.962;2023-05-10T06:13:49;7.80;;;5.80;;
1062;SDS011;520;50.932;6.962;2023-05-10T06:16:16;7.17;;;5.07;;
1062;SDS011;520;50.932;6.962;2023-05-10T06:18:43;7.30;;;5.20;;
1062;SDS011;520;50.932;6.962;2023-05-10T06:21:10;10.00;;;5.40;;
1062;SDS011;520;50.932;6.962;2023-05-10T06:23:37;6.20;;;4.73;;
1062;SDS011;520;50.932;6.962;2023-05-10T06:26:04;8.20;;;5.60;;
1062;SDS011;520;50.932;6.962;2023-05-10T06:28:31;9.40;;;5.70;;
1062;SDS011;520;50.932;6.962;2023-05-10T06:30:59;7.50;;;4.80;;
1062;SDS011;520;50.932;6.962;2023-05-10T06:33:26;8.20;;;6.30;;
1062;SDS011;520;50.932;6.962;2023-05-10T06:35:54;9.80;;;5.50;;
1062;SDS011;520;50.932;6.962;2023-05-10T06:38:21;12.40;;;6.80;;
1062;SDS011;520;50.932;6.962;2023-05-10T06:40:47;9.80;;;6.17;;
1062;SDS011;520;50.932;6.962;2023-05-10T06:43:18;8.50;;;5.67;;
1062;SDS011;520;50.932;6.962;2023-05-10T06:45:45;7.70;;;5.23;;
1062;SDS011;520;50.932;6.962;2023-05-10T06:48:13;7.40;;;4.90;;
1062;SDS011;520;50.932;6.962;2023-05-10T06:50:40;8.23;;;5.43;;
1062;SDS011;520;50.932;6.962;2023-05-10T06:53:07;8.20;;;4.83;;
1062;SDS011;520;50.932;6.962;2023-05-10T06:55:34;7.53;;;5.20;;
1062;SDS011;520;50.932;6.962;2023-05-10T06:58:01;7.77;;;5.10;;
1062;SDS011;520;50.932;6.962;2023-05-10T07:00:41;8.53;;;5.20;;
1062;SDS011;520;50.932;6.962;2023-05-10T07:03:58;8.40;;;6.17;;
1062;SDS011;520;50.932;6.962;2023-05-10T07:06:42;9.60;;;5.67;;
1062;SDS011;520;50.932;6.962;2023-05-10T07:09:24;8.43;;;5.20;;
1062;SDS011;520;50.932;6.962;2023-05-10T07:11:56;8.50;;;5.77;;
1062;SDS011;520;50.932;6.962;2023-05-10T07:14:28;6.23;;;5.53;;
1062;SDS011;520;50.932;6.962;2023-05-10T07:17:14;10.63;;;6.10;;
1062;SDS011;520;50.932;6.962;2023-05-10T07:23:15;8.77;;;6.07;;
1062;SDS011;520;50.932;6.962;2023-05-10T07:26:01;7.33;;;6.20;;
1062;SDS011;520;50.932;6.962;2023-05-10T07:28:39;7.77;;;5.67;;
1062;SDS011;520;50.932;6.962;2023-05-10T07:31:23;8.10;;;5.70;;
1062;SDS011;520;50.932;6.962;2023-05-10T07:34:10;7.97;;;5.30;;
1062;SDS011;520;50.932;6.962;2023-05-10T07:36:58;9.20;;;5.20;;
1062;SDS011;520;50.932;6.962;2023-05-10T07:39:34;8.57;;;5.03;;
1062;SDS011;520;50.932;6.962;2023-05-10T07:42:10;5.10;;;4.10;;
1062;SDS011;520;50.932;6.962;2023-05-10T07:44:53;5.80;;;5.17;;
1062;SDS011;520;50.932;6.962;2023-05-10T07:47:48;9.40;;;5.13;;
1062;SDS011;520;50.932;6.962;2023-05-10T07:50:21;8.33;;;5.30;;
1062;SDS011;520;50.932;6.962;2023-05-10T07:53:10;8.10;;;5.53;;
1062;SDS011;520;50.932;6.962;2023-05-10T07:55:39;8.10;;;4.90;;
1062;SDS011;520;50.932;6.962;2023-05-10T08:01:41;6.97;;;5.40;;
1062;SDS011;520;50.932;6.962;2023-05-10T08:04:38;10.83;;;6.33;;
1062;SDS011;520;50.932;6.962;2023-05-10T08:07:16;6.27;;;5.33;;
1062;SDS011;520;50.932;6.962;2023-05-10T08:10:06;7.10;;;5.33;;
1062;SDS011;520;50.932;6.962;2023-05-10T08:12:58;9.00;;;5.50;;
1062;SDS011;520;50.932;6.962;2023-05-10T08:16:12;5.10;;;3.30;;
1062;SDS011;520;50.932;6.962;2023-05-10T08:18:46;8.70;;;4.30;;
1062;SDS011;520;50.932;6.962;2023-05-10T08:21:36;7.20;;;4.33;;
1062;SDS011;520;50.932;6.962;2023-05-10T08:24:27;6.77;;;4.80;;
1062;SDS011;520;50.932;6.962;2023-05-10T08:27:32;5.73;;;4.57;;
1062;SDS011;520;50.932;6.962;2023-05-10T08:30:17;4.37;;;3.20;;
1062;SDS011;520;50.932;6.962;2023-05-10T08:33:00;4.77;;;3.67;;
1062;SDS011;520;50.932;6.962;2023-05-10T08:35:34;3.43;;;2.97;;
1062;SDS011;520;50.932;6.962;2023-05-10T08:38:26;4.13;;;3.63;;
1062;SDS011;520;50.932;6.962;2023-05-10T08:40:58;5.00;;;3.50;;
1062;SDS011;520;50.932;6.962;2023-05-10T08:43:44;3.60;;;2.97;;
1062;SDS011;520;50.932;6.962;2023-05-10T08:46:40;4.60;;;3.43;;
1062;SDS011;520;50.932;6.962;2023-05-10T08:49:38;4.33;;;3.37;;
1062;SDS011;520;50.932;6.962;2023-05-10T08:52:28;4.10;;;3.40;;
1062;SDS011;520;50.932;6.962;2023-05-10T08:55:17;4.63;;;3.13;;
1062;SDS011;520;50.932;6.962;2023-05-10T08:57:59;5.40;;;3.60;;
1062;SDS011;520;50.932;6.962;2023-05-10T09:00:39;5.03;;;3.30;;
1062;SDS011;520;50.932;6.962;2023-05-10T09:03:20;3.43;;;3.13;;
1062;SDS011;520;50.932;6.962;2023-05-10T09:05:59;4.33;;;3.90;;
1062;SDS011;520;50.932;6.962;2023-05-10T09:08:42;5.37;;;4.00;;
1062;SDS011;520;50.932;6.962;2023-05-10T09:14:34;5.60;;;4.00;;
1062;SDS011;520;50.932;6.962;2023-05-10T09:17:16;4.93;;;3.57;;
1062;SDS011;520;50.932;6.962;2023-05-10T09:19:56;4.27;;;3.57;;
1062;SDS011;520;50.932;6.962;2023-05-10T09:22:41;4.97;;;3.83;;
1062;SDS011;520;50.932;6.962;2023-05-10T09:25:26;5.73;;;3.97;;
1062;SDS011;520;50.932;6.962;2023-05-10T09:28:22;4.87;;;4.37;;
1062;SDS011;520;50.932;6.962;2023-05-10T09:31:01;5.30;;;4.13;;
1062;SDS011;520;50.932;6.962;2023-05-10T09:33:54;5.40;;;4.40;;
1062;SDS011;520;50.932;6.962;2023-05-10T09:36:26;6.13;;;4.80;;
1062;SDS011;520;50.932;6.962;2023-05-10T09:39:03;4.63;;;4.17;;
1062;SDS011;520;50.932;6.962;2023-05-10T09:41:35;6.37;;;4.67;;
1062;SDS011;520;50.932;6.962;2023-05-10T09:44:17;10.80;;;7.57;;
1062;SDS011;520;50.932;6.962;2023-05-10T09:47:11;7.33;;;6.43;;
1062;SDS011;520;50.932;6.962;2023-05-10T09:50:04;9.60;;;5.10;;
1062;SDS011;520;50.932;6.962;2023-05-10T09:55:44;8.60;;;5.30;;
1062;SDS011;520;50.932;6.962;2023-05-10T09:58:36;9.90;;;6.20;;
1062;SDS011;520;50.932;6.962;2023-05-10T10:01:43;6.80;;;5.07;;
1062;SDS011;520;50.932;6.962;2023-05-10T10:04:41;9.27;;;5.93;;
1062;SDS011;520;50.932;6.962;2023-05-10T10:07:46;6.60;;;5.40;;
1062;SDS011;520;50.932;6.962;2023-05-10T10:10:28;14.13;;;8.90;;
1062;SDS011;520;50.932;6.962;2023-05-10T10:13:18;7.57;;;4.57;;
1062;SDS011;520;50.932;6.962;2023-05-10T10:16:16;6.37;;;4.73;;
1062;SDS011;520;50.932;6.962;2023-05-10T10:18:44;8.90;;;4.77;;
1062;SDS011;520;50.932;6.962;2023-05-10T10:21:35;6.00;;;4.60;;
1062;SDS011;520;50.932;6.962;2023-05-10T10:24:13;4.90;;;3.90;;
1062;SDS011;520;50.932;6.962;2023-05-10T10:27:28;5.00;;;3.83;;
1062;SDS011;520;50.932;6.962;2023-05-10T10:30:23;6.87;;;4.27;;
1062;SDS011;520;50.932;6.962;2023-05-10T10:33:40;8.70;;;4.60;;
1062;SDS011;520;50.932;6.962;2023-05-10T10:36:30;5.10;;;4.03;;
1062;SDS011;520;50.932;6.962;2023-05-10T10:39:18;4.60;;;3.50;;
1062;SDS011;520;50.932;6.962;2023-05-10T10:42:05;4.80;;;4.10;;
1062;SDS011;520;50.932;6.962;2023-05-10T10:45:11;5.80;;;4.23;;
1062;SDS011;520;50.932;6.962;2023-05-10T10:48:19;6.30;;;3.90;;
1062;SDS011;520;50.932;6.962;2023-05-10T10:51:28;6.00;;;4.20;;
1062;SDS011;520;50.932;6.962;2023-05-10T10:54:10;6.97;;;3.87;;
1062;SDS011;520;50.932;6.962;2023-05-10T11:06:42;5.87;;;4.10;;
1062;SDS011;520;50.932;6.962;2023-05-10T11:09:26;5.70;;;4.17;;
1062;SDS011;520;50.932;6.962;2023-05-10T11:12:09;5.50;;;3.40;;
1062;SDS011;520;50.932;6.962;2023-05-10T11:14:49;6.23;;;3.40;;
1062;SDS011;520;50.932;6.962;2023-05-10T11:17:24;3.20;;;2.90;;
1062;SDS011;520;50.932;6.962;2023-05-10T11:20:07;5.00;;;3.80;;
1062;SDS011;520;50.932;6.962;2023-05-10T11:22:49;4.57;;;3.37;;
1062;SDS011;520;50.932;6.962;2023-05-10T11:25:39;5.20;;;3.33;;
1062;SDS011;520;50.932;6.962;2023-05-10T11:28:44;2.63;;;2.20;;
1062;SDS011;520;50.932;6.962;2023-05-10T11:34:49;2.50;;;2.30;;
1062;SDS011;520;50.932;6.962;2023-05-10T11:37:38;3.70;;;2.50;;
1062;SDS011;520;50.932;6.962;2023-05-10T11:40:17;3.60;;;2.80;;
1062;SDS011;520;50.932;6.962;2023-05-10T11:42:45;4.53;;;2.10;;
1062;SDS011;520;50.932;6.962;2023-05-10T11:45:33;6.00;;;2.53;;
1062;SDS011;520;50.932;6.962;2023-05-10T11:48:02;3.33;;;2.17;;
1062;SDS011;520;50.932;6.962;2023-05-10T11:50:34;2.40;;;1.80;;
1062;SDS011;520;50.932;6.962;2023-05-10T11:53:10;2.70;;;2.07;;
1062;SDS011;520;50.932;6.962;2023-05-10T11:55:52;7.07;;;3.47;;
1062;SDS011;520;50.932;6.962;2023-05-10T11:58:41;3.10;;;2.17;;
1062;SDS011;520;50.932;6.962;2023-05-10T12:04:19;1.67;;;1.50;;
1062;SDS011;520;50.932;6.962;2023-05-10T12:07:11;1.90;;;1.80;;
1062;SDS011;520;50.932;6.962;2023-05-10T12:09:44;3.10;;;2.00;;
1062;SDS011;520;50.932;6.962;2023-05-10T12:12:41;2.97;;;2.17;;
1062;SDS011;520;50.932;6.962;2023-05-10T12:15:26;2.37;;;1.90;;
1062;SDS011;520;50.932;6.962;2023-05-10T12:18:23;2.20;;;2.00;;
1062;SDS011;520;50.932;6.962;2023-05-10T12:21:02;1.60;;;1.30;;
1062;SDS011;520;50.932;6.962;2023-05-10T12:23:37;1.83;;;1.63;;
1062;SDS011;520;50.932;6.962;2023-05-10T12:26:31;1.50;;;1.40;;
1062;SDS011;520;50.932;6.962;2023-05-10T12:29:15;1.60;;;1.50;;
1062;SDS011;520;50.932;6.962;2023-05-10T12:32:38;3.03;;;1.83;;
1062;SDS011;520;50.932;6.962;2023-05-10T12:35:45;1.40;;;1.30;;
1062;SDS011;520;50.932;6.962;2023-05-10T12:38:33;2.07;;;1.40;;
1062;SDS011;520;50.932;6.962;2023-05-10T12:41:20;2.20;;;2.00;;
1062;SDS011;520;50.932;6.962;2023-05-10T12:43:59;2.67;;;1.50;;
1062;SDS011;520;50.932;6.962;2023-05-10T12:46:43;2.00;;;1.80;;
1062;SDS011;520;50.932;6.962;2023-05-10T12:49:09;1.60;;;1.50;;
1062;SDS011;520;50.932;6.962;2023-05-10T12:51:36;1.70;;;1.60;;
1062;SDS011;520;50.932;6.962;2023-05-10T12:54:03;1.83;;;1.70;;
1062;SDS011;520;50.932;6.962;2023-05-10T12:56:30;1.93;;;1.50;;
1062;SDS011;520;50.932;6.962;2023-05-10T12:58:56;1.50;;;1.40;;
1062;SDS011;520;50.932;6.962;2023-05-10T13:01:23;1.30;;;1.20;;
1062;SDS011;520;50.932;6.962;2023-05-10T13:03:50;1.60;;;1.50;;
1062;SDS011;520;50.932;6.962;2023-05-10T13:06:17;1.57;;;1.47;;
1062;SDS011;520;50.932;6.962;2023-05-10T13:08:46;1.50;;;1.40;;
1062;SDS011;520;50.932;6.962;2023-05-10T13:11:13;1.70;;;1.60;;
1062;SDS011;520;50.932;6.962;2023-05-10T13:13:42;1.30;;;1.20;;
1062;SDS011;520;50.932;6.962;2023-05-10T13:16:09;1.40;;;1.30;;
1062;SDS011;520;50.932;6.962;2023-05-10T13:18:35;1.30;;;1.20;;
1062;SDS011;520;50.932;6.962;2023-05-10T13:21:02;1.50;;;1.40;;
1062;SDS011;520;50.932;6.962;2023-05-10T13:23:31;1.80;;;1.40;;
1062;SDS011;520;50.932;6.962;2023-05-10T13:25:58;1.10;;;1.00;;
1062;SDS011;520;50.932;6.962;2023-05-10T13:28:25;1.63;;;1.53;;
1062;SDS011;520;50.932;6.962;2023-05-10T13:30:52;1.30;;;1.20;;
1062;SDS011;520;50.932;6.962;2023-05-10T13:33:19;2.20;;;1.83;;
1062;SDS011;520;50.932;6.962;2023-05-10T13:35:45;1.50;;;1.40;;
1062;SDS011;520;50.932;6.962;2023-05-10T13:38:12;1.40;;;1.30;;
1062;SDS011;520;50.932;6.962;2023-05-10T13:40:40;1.30;;;0.80;;
1062;SDS011;520;50.932;6.962;2023-05-10T13:43:06;1.00;;;1.00;;
1062;SDS011;520;50.932;6.962;2023-05-10T13:45:33;1.73;;;1.30;;
1062;SDS011;520;50.932;6.962;2023-05-10T13:48:00;1.00;;;0.93;;
1062;SDS011;520;50.932;6.962;2023-05-10T13:50:27;1.00;;;1.00;;
1062;SDS011;520;50.932;6.962;2023-05-10T13:52:54;2.30;;;1.67;;
1062;SDS011;520;50.932;6.962;2023-05-10T13:55:21;2.10;;;1.10;;
1062;SDS011;520;50.932;6.962;2023-05-10T13:58:05;1.30;;;1.20;;
1062;SDS011;520;50.932;6.962;2023-05-10T14:00:32;1.30;;;1.20;;
1062;SDS011;520;50.932;6.962;2023-05-10T14:02:59;2.00;;;1.67;;
1062;SDS011;520;50.932;6.962;2023-05-10T14:05:26;2.57;;;2.37;;
1062;SDS011;520;50.932;6.962;2023-05-10T14:07:53;1.97;;;1.77;;
1062;SDS011;520;50.932;6.962;2023-05-10T14:10:20;2.63;;;1.23;;
1062;SDS011;520;50.932;6.962;2023-05-10T14:12:47;1.20;;;1.10;;
1062;SDS011;520;50.932;6.962;2023-05-10T14:15:14;2.27;;;1.50;;
1062;SDS011;520;50.932;6.962;2023-05-10T14:17:41;0.90;;;0.87;;
1062;SDS011;520;50.932;6.962;2023-05-10T14:20:08;0.97;;;0.97;;
1062;SDS011;520;50.932;6.962;2023-05-10T14:22:35;1.53;;;1.43;;
1062;SDS011;520;50.932;6.962;2023-05-10T14:25:02;0.97;;;0.70;;
1062;SDS011;520;50.932;6.962;2023-05-10T14:27:32;1.00;;;0.87;;
1062;SDS011;520;50.932;6.962;2023-05-10T14:30:13;0.83;;;0.83;;
1062;SDS011;520;50.932;6.962;2023-05-10T14:32:55;1.10;;;1.00;;
1062;SDS011;520;50.932;6.962;2023-05-10T14:35:30;1.27;;;1.17;;
1062;SDS011;520;50.932;6.962;2023-05-10T14:37:59;0.93;;;0.83;;
1062;SDS011;520;50.932;6.962;2023-05-10T14:40:34;0.97;;;0.97;;
1062;SDS011;520;50.932;6.962;2023-05-10T14:43:18;1.30;;;0.97;;
1062;SDS011;520;50.932;6.962;2023-05-10T14:45:49;1.33;;;1.10;;
1062;SDS011;520;50.932;6.962;2023-05-10T14:48:21;0.97;;;0.90;;
1062;SDS011;520;50.932;6.962;2023-05-10T14:51:10;1.00;;;0.90;;
1062;SDS011;520;50.932;6.962;2023-05-10T14:53:56;0.87;;;0.80;;
1062;SDS011;520;50.932;6.962;2023-05-10T14:56:46;1.13;;;1.03;;
1062;SDS011;520;50.932;6.962;2023-05-10T14:59:22;1.43;;;0.93;;
1062;SDS011;520;50.932;6.962;2023-05-10T15:01:56;1.30;;;1.13;;
1062;SDS011;520;50.932;6.962;2023-05-10T15:04:31;1.20;;;1.10;;
1062;SDS011;520;50.932;6.962;2023-05-10T15:07:07;1.47;;;1.00;;
1062;SDS011;520;50.932;6.962;2023-05-10T15:09:56;1.23;;;1.13;;
1062;SDS011;520;50.932;6.962;2023-05-10T15:12:35;1.07;;;0.97;;
1062;SDS011;520;50.932;6.962;2023-05-10T15:15:05;1.33;;;1.20;;
1062;SDS011;520;50.932;6.962;2023-05-10T15:17:41;1.07;;;1.03;;
1062;SDS011;520;50.932;6.962;2023-05-10T15:20:25;1.37;;;1.27;;
1062;SDS011;520;50.932;6.962;2023-05-10T15:22:55;0.80;;;0.80;;
1062;SDS011;520;50.932;6.962;2023-05-10T15:28:47;1.73;;;1.17;;
1062;SDS011;520;50.932;6.962;2023-05-10T15:31:15;1.90;;;1.47;;
1062;SDS011;520;50.932;6.962;2023-05-10T15:33:50;1.20;;;1.03;;
1062;SDS011;520;50.932;6.962;2023-05-10T15:36:22;2.17;;;1.03;;
1062;SDS011;520;50.932;6.962;2023-05-10T15:38:56;1.20;;;1.10;;
1062;SDS011;520;50.932;6.962;2023-05-10T15:41:37;1.43;;;1.33;;
1062;SDS011;520;50.932;6.962;2023-05-10T15:44:26;1.30;;;1.20;;
1062;SDS011;520;50.932;6.962;2023-05-10T15:47:15;2.00;;;1.10;;
1062;SDS011;520;50.932;6.962;2023-05-10T15:49:44;1.30;;;1.00;;
1062;SDS011;520;50.932;6.962;2023-05-10T15:52:22;1.27;;;1.17;;
1062;SDS011;520;50.932;6.962;2023-05-10T15:55:03;1.43;;;1.33;;
1062;SDS011;520;50.932;6.962;2023-05-10T15:57:49;2.63;;;2.17;;
1062;SDS011;520;50.932;6.962;2023-05-10T16:00:16;1.20;;;1.10;;
1062;SDS011;520;50.932;6.962;2023-05-10T16:02:54;1.10;;;1.00;;
1062;SDS011;520;50.932;6.962;2023-05-10T16:05:34;1.37;;;1.27;;
1062;SDS011;520;50.932;6.962;2023-05-10T16:08:02;1.60;;;1.30;;
1062;SDS011;520;50.932;6.962;2023-05-10T16:10:32;1.43;;;1.07;;
1062;SDS011;520;50.932;6.962;2023-05-10T16:13:14;1.43;;;1.10;;
1062;SDS011;520;50.932;6.962;2023-05-10T16:15:53;1.30;;;1.20;;
1062;SDS011;520;50.932;6.962;2023-05-10T16:18:30;2.27;;;1.67;;
1062;SDS011;520;50.932;6.962;2023-05-10T16:20:59;2.73;;;2.17;;
1062;SDS011;520;50.932;6.962;2023-05-10T16:23:32;1.90;;;1.67;;
1062;SDS011;520;50.932;6.962;2023-05-10T16:26:04;1.67;;;1.57;;
1062;SDS011;520;50.932;6.962;2023-05-10T16:28:35;1.63;;;1.40;;
1062;SDS011;520;50.932;6.962;2023-05-10T16:31:04;1.77;;;1.57;;
1062;SDS011;520;50.932;6.962;2023-05-10T16:33:36;2.80;;;1.50;;
1062;SDS011;520;50.932;6.962;2023-05-10T16:36:32;2.90;;;1.30;;
1062;SDS011;520;50.932;6.962;2023-05-10T16:39:03;2.40;;;1.40;;
1062;SDS011;520;50.932;6.962;2023-05-10T16:41:34;1.80;;;1.40;;
1062;SDS011;520;50.932;6.962;2023-05-10T16:44:12;1.40;;;1.30;;
1062;SDS011;520;50.932;6.962;2023-05-10T16:46:46;1.83;;;1.27;;
1062;SDS011;520;50.932;6.962;2023-05-10T16:49:20;1.10;;;1.00;;
1062;SDS011;520;50.932;6.962;2023-05-10T16:51:54;1.60;;;1.40;;
1062;SDS011;520;50.932;6.962;2023-05-10T16:54:30;1.33;;;1.23;;
1062;SDS011;520;50.932;6.962;2023-05-10T16:57:10;2.03;;;1.30;;
1062;SDS011;520;50.932;6.962;2023-05-10T16:59:37;1.37;;;1.27;;
1062;SDS011;520;50.932;6.962;2023-05-10T17:02:07;2.57;;;2.23;;
1062;SDS011;520;50.932;6.962;2023-05-10T17:04:37;1.47;;;1.37;;
1062;SDS011;520;50.932;6.962;2023-05-10T17:07:04;2.07;;;1.80;;
1062;SDS011;520;50.932;6.962;2023-05-10T17:09:33;2.13;;;1.53;;
1062;SDS011;520;50.932;6.962;2023-05-10T17:12:05;1.23;;;1.10;;
1062;SDS011;520;50.932;6.962;2023-05-10T17:14:34;2.40;;;1.60;;
1062;SDS011;520;50.932;6.962;2023-05-10T17:17:07;2.20;;;1.87;;